Strona główna
METAR-TAF:

METAR-TAF

Lotnisko :

Port lotniczy Shoreham

Brighton, Anglia

Szerokość geograficzna: 50-50N, Długość geograficzna: 000-17W, wysokość: 2 m

Aktualna obserwacja pogody

Raport powstał 9 godziny i 42 minut temu, godzina 16:50 UTC
Wiatr 14 kt od północny wschód
Temperatura 9°C
Wilgotność 49%
Ciśnienie 1029 hPa
Widzialność 10 km lub więcej
Mało chmury na wysokości 4700 ft

METAR: EGKA 311650Z 04014KT 9999 FEW047 09/M01 Q1029

czas: 03:32 (02:32 UTC)

Prognoza

Raport powstał 12 godziny i 36 minut temu, godzina 13:56 UTC
Prognoza ważna od 31 godzina 15 UTC do 31 godzina 18 UTC
Wiatr 14 kt od wschodnio-północny wschód
Widzialność 10 km lub więcej
Mało chmury na wysokości 4000 ft

TAF: EGKA 311356Z 3115/3118 06014KT 9999 FEW040

Obserwacja i prognoza pogody dla ponad 4000 lotnisk (raport METAR i TAF).

Dostępne stacje oznaczono żółtymi i czerwonymi punktami na mapie.

Najedź kursorem aby zobaczyć nazwę stacji.

Kliknij aby zobaczyć obserwacje i prognozy pogody.

Aby zmienić mapę: kliknij na zielony przycisk z czarnym krzyżykiem, aby powiększyć; na zielony przycisk z myślnikiem, aby pomniejszyć; na zielone strzałki, aby przejść do map sąsiednich.


METAR-TAF: